DUGK1: Little Walnut Rvr nr Bois d'Arc KS

Data processed at Fri Oct 12 2018 23:32


All information presented herein is the property of the government of the United States of America and may be revised or deleted at any time without prior notice.
Dissemination of this information without the expressed written consent of the Public Affairs Office, Tulsa District U.S. Army Corps of Engineers is strictly prohibited.
These data are gathered electronically and, as presented, have not undergone any form of quality control. These data are not guaranteed to be valid or correct.
Go to home page.
Go to station list.
Go to home page.

Downstream station:


Previous Day
Next Day
Current Day
    
SHEF ID:       DUGK1     Little Walnut Rvr nr Bois d'Arc
STATION TYPE:  

               PRECIP     STAGE  RIV-FLOW   VOLTAGE  BAT-LOAD
                   in        ft       cfs      volt      volt
              Ccp-Rev   Ccp-Rev   Ccp-Rev   Ccp-Rev   Ccp-Rev
(US/Central)
10/12 00:00      0.00     10.69      1740     12.97     12.81
10/12 01:00      0.00     10.67      1724     12.89     12.81
10/12 02:00      0.00     10.71      1757     12.89     12.73
10/12 03:00      0.00     10.63      1691     12.81     12.73
10/12 04:00      0.02     10.61      1675     12.81     12.65
10/12 05:00      0.01     10.60      1667     12.73     12.65
10/12 06:00      0.06     10.60      1667     12.73     12.65
10/12 07:00      0.01     10.56      1635     12.73     12.65
10/12 08:00      0.03     10.61      1675     12.73     12.65
10/12 09:00      0.03     10.49      1581     12.73     12.65
10/12 10:00      0.03     10.51      1597     12.73     12.65
10/12 11:00      0.04     10.53      1612     12.89     12.73
10/12 12:00      0.00     10.47      1566     13.05     12.97
10/12 13:00      0.01     10.47      1566     13.60     13.29
10/12 14:00      0.00     10.49      1581     13.53     13.37
10/12 15:00      0.00     10.47      1566     13.44     13.37
10/12 16:00      0.00     10.48      1574     13.29     13.21
10/12 17:00      0.00     10.47      1566     13.29     13.29
10/12 18:00      0.00     10.48      1574     13.13     13.05
10/12 19:00      ----      ----      ----     13.05     12.97
10/12 20:00      ----      ----      ----     12.97     12.89
10/12 21:00      ----      ----      ----     12.97     12.81
10/12 22:00      ----      ----      ----     12.89     12.73
10/12 23:00      ----      ----      ----      ----      ----